sensor_id;sensor_type;location;lat;lon;timestamp;P1;durP1;ratioP1;P2;durP2;ratioP2
39492;SDS011;25176;51.060;3.720;2022-08-04T00:01:07;9.02;;;2.40;;
39492;SDS011;25176;51.060;3.720;2022-08-04T00:03:51;6.32;;;2.33;;
39492;SDS011;25176;51.060;3.720;2022-08-04T00:06:28;4.40;;;2.00;;
39492;SDS011;25176;51.060;3.720;2022-08-04T00:09:07;4.30;;;1.77;;
39492;SDS011;25176;51.060;3.720;2022-08-04T00:11:37;3.13;;;2.00;;
39492;SDS011;25176;51.060;3.720;2022-08-04T00:14:12;4.22;;;1.40;;
39492;SDS011;25176;51.060;3.720;2022-08-04T00:16:39;9.15;;;2.20;;
39492;SDS011;25176;51.060;3.720;2022-08-04T00:19:16;6.68;;;1.85;;
39492;SDS011;25176;51.060;3.720;2022-08-04T00:21:51;4.78;;;1.77;;
39492;SDS011;25176;51.060;3.720;2022-08-04T00:24:24;9.18;;;1.90;;
39492;SDS011;25176;51.060;3.720;2022-08-04T00:26:53;6.30;;;1.75;;
39492;SDS011;25176;51.060;3.720;2022-08-04T00:29:20;6.03;;;1.67;;
39492;SDS011;25176;51.060;3.720;2022-08-04T00:31:46;5.90;;;1.88;;
39492;SDS011;25176;51.060;3.720;2022-08-04T00:34:12;4.70;;;1.80;;
39492;SDS011;25176;51.060;3.720;2022-08-04T00:36:39;4.30;;;1.80;;
39492;SDS011;25176;51.060;3.720;2022-08-04T00:39:08;6.47;;;2.50;;
39492;SDS011;25176;51.060;3.720;2022-08-04T00:50:08;3.50;;;2.00;;
39492;SDS011;25176;51.060;3.720;2022-08-04T01:00:54;6.05;;;2.42;;
39492;SDS011;25176;51.060;3.720;2022-08-04T01:08:48;5.95;;;2.30;;
39492;SDS011;25176;51.060;3.720;2022-08-04T01:14:34;5.72;;;2.40;;
39492;SDS011;25176;51.060;3.720;2022-08-04T01:27:41;4.38;;;2.25;;
39492;SDS011;25176;51.060;3.720;2022-08-04T01:30:34;7.03;;;2.45;;
39492;SDS011;25176;51.060;3.720;2022-08-04T01:33:04;3.85;;;1.90;;
39492;SDS011;25176;51.060;3.720;2022-08-04T01:35:41;6.78;;;2.20;;
39492;SDS011;25176;51.060;3.720;2022-08-04T01:40:52;3.88;;;2.08;;
39492;SDS011;25176;51.060;3.720;2022-08-04T01:43:21;3.28;;;2.13;;
39492;SDS011;25176;51.060;3.720;2022-08-04T01:45:49;3.58;;;1.67;;
39492;SDS011;25176;51.060;3.720;2022-08-04T01:48:22;5.68;;;2.10;;
39492;SDS011;25176;51.060;3.720;2022-08-04T01:50:49;4.60;;;2.03;;
39492;SDS011;25176;51.060;3.720;2022-08-04T01:53:18;5.00;;;2.55;;
39492;SDS011;25176;51.060;3.720;2022-08-04T01:55:47;4.03;;;1.83;;
39492;SDS011;25176;51.060;3.720;2022-08-04T01:58:19;5.70;;;1.85;;
39492;SDS011;25176;51.060;3.720;2022-08-04T02:00:49;11.30;;;2.38;;
39492;SDS011;25176;51.060;3.720;2022-08-04T02:03:38;7.32;;;2.00;;
39492;SDS011;25176;51.060;3.720;2022-08-04T02:09:16;6.85;;;2.30;;
39492;SDS011;25176;51.060;3.720;2022-08-04T02:12:25;7.07;;;1.77;;
39492;SDS011;25176;51.060;3.720;2022-08-04T02:15:03;9.73;;;2.20;;
39492;SDS011;25176;51.060;3.720;2022-08-04T02:17:58;5.82;;;1.70;;
39492;SDS011;25176;51.060;3.720;2022-08-04T02:20:48;5.45;;;1.75;;
39492;SDS011;25176;51.060;3.720;2022-08-04T02:23:20;5.70;;;1.80;;
39492;SDS011;25176;51.060;3.720;2022-08-04T02:26:02;3.85;;;1.83;;
39492;SDS011;25176;51.060;3.720;2022-08-04T02:31:23;3.25;;;1.85;;
39492;SDS011;25176;51.060;3.720;2022-08-04T02:36:34;5.35;;;2.05;;
39492;SDS011;25176;51.060;3.720;2022-08-04T02:39:02;4.88;;;2.20;;
39492;SDS011;25176;51.060;3.720;2022-08-04T02:41:30;5.00;;;1.90;;
39492;SDS011;25176;51.060;3.720;2022-08-04T02:43:58;12.63;;;2.25;;
39492;SDS011;25176;51.060;3.720;2022-08-04T02:46:29;4.57;;;1.90;;
39492;SDS011;25176;51.060;3.720;2022-08-04T02:48:56;5.55;;;2.00;;
39492;SDS011;25176;51.060;3.720;2022-08-04T02:51:23;5.60;;;2.47;;
39492;SDS011;25176;51.060;3.720;2022-08-04T02:53:55;5.60;;;2.20;;
39492;SDS011;25176;51.060;3.720;2022-08-04T02:56:22;4.03;;;2.10;;
39492;SDS011;25176;51.060;3.720;2022-08-04T02:58:50;6.35;;;2.47;;
39492;SDS011;25176;51.060;3.720;2022-08-04T03:01:18;3.47;;;1.63;;
39492;SDS011;25176;51.060;3.720;2022-08-04T03:20:16;3.75;;;1.55;;
39492;SDS011;25176;51.060;3.720;2022-08-04T03:53:08;4.68;;;2.50;;
39492;SDS011;25176;51.060;3.720;2022-08-04T04:01:00;4.25;;;2.15;;
39492;SDS011;25176;51.060;3.720;2022-08-04T04:09:33;7.47;;;2.40;;
39492;SDS011;25176;51.060;3.720;2022-08-04T04:12:17;5.18;;;2.80;;
39492;SDS011;25176;51.060;3.720;2022-08-04T04:15:13;4.90;;;2.40;;
39492;SDS011;25176;51.060;3.720;2022-08-04T04:18:15;8.45;;;3.40;;
39492;SDS011;25176;51.060;3.720;2022-08-04T04:21:00;7.20;;;3.80;;
39492;SDS011;25176;51.060;3.720;2022-08-04T04:46:04;8.25;;;3.47;;
39492;SDS011;25176;51.060;3.720;2022-08-04T04:48:47;8.15;;;4.50;;
39492;SDS011;25176;51.060;3.720;2022-08-04T04:51:47;7.97;;;4.30;;
39492;SDS011;25176;51.060;3.720;2022-08-04T04:54:36;10.07;;;5.68;;
39492;SDS011;25176;51.060;3.720;2022-08-04T04:57:16;11.60;;;7.38;;
39492;SDS011;25176;51.060;3.720;2022-08-04T04:59:57;12.45;;;8.23;;
39492;SDS011;25176;51.060;3.720;2022-08-04T05:14:02;16.45;;;11.40;;
39492;SDS011;25176;51.060;3.720;2022-08-04T05:16:36;17.40;;;11.68;;
39492;SDS011;25176;51.060;3.720;2022-08-04T05:19:24;19.95;;;12.05;;
39492;SDS011;25176;51.060;3.720;2022-08-04T05:22:15;19.20;;;12.73;;
39492;SDS011;25176;51.060;3.720;2022-08-04T05:24:48;50.38;;;17.23;;
39492;SDS011;25176;51.060;3.720;2022-08-04T05:27:23;20.85;;;13.05;;
39492;SDS011;25176;51.060;3.720;2022-08-04T05:29:55;19.55;;;13.30;;
39492;SDS011;25176;51.060;3.720;2022-08-04T05:32:28;24.95;;;14.00;;
39492;SDS011;25176;51.060;3.720;2022-08-04T05:35:08;18.80;;;12.65;;
39492;SDS011;25176;51.060;3.720;2022-08-04T05:37:37;25.15;;;13.88;;
39492;SDS011;25176;51.060;3.720;2022-08-04T05:40:05;18.02;;;13.77;;
39492;SDS011;25176;51.060;3.720;2022-08-04T05:42:35;20.33;;;13.77;;
39492;SDS011;25176;51.060;3.720;2022-08-04T05:45:03;21.73;;;13.70;;
39492;SDS011;25176;51.060;3.720;2022-08-04T05:47:32;20.90;;;16.20;;
39492;SDS011;25176;51.060;3.720;2022-08-04T05:50:00;19.65;;;15.15;;
39492;SDS011;25176;51.060;3.720;2022-08-04T05:52:27;18.00;;;13.27;;
39492;SDS011;25176;51.060;3.720;2022-08-04T05:54:55;17.42;;;13.30;;
39492;SDS011;25176;51.060;3.720;2022-08-04T05:57:21;23.88;;;14.05;;
39492;SDS011;25176;51.060;3.720;2022-08-04T05:59:48;19.85;;;13.80;;
39492;SDS011;25176;51.060;3.720;2022-08-04T06:02:16;16.08;;;11.98;;
39492;SDS011;25176;51.060;3.720;2022-08-04T06:04:44;17.83;;;12.25;;
39492;SDS011;25176;51.060;3.720;2022-08-04T06:07:12;18.15;;;12.52;;
39492;SDS011;25176;51.060;3.720;2022-08-04T06:09:38;16.73;;;11.55;;
39492;SDS011;25176;51.060;3.720;2022-08-04T06:12:10;14.20;;;11.80;;
39492;SDS011;25176;51.060;3.720;2022-08-04T06:14:46;15.45;;;11.40;;
39492;SDS011;25176;51.060;3.720;2022-08-04T06:17:25;12.23;;;10.52;;
39492;SDS011;25176;51.060;3.720;2022-08-04T06:19:56;11.05;;;9.85;;
39492;SDS011;25176;51.060;3.720;2022-08-04T06:22:23;12.32;;;9.80;;
39492;SDS011;25176;51.060;3.720;2022-08-04T06:24:51;11.98;;;10.25;;
39492;SDS011;25176;51.060;3.720;2022-08-04T06:27:19;12.60;;;10.05;;
39492;SDS011;25176;51.060;3.720;2022-08-04T06:29:47;18.98;;;10.93;;
39492;SDS011;25176;51.060;3.720;2022-08-04T06:32:13;11.55;;;9.98;;
39492;SDS011;25176;51.060;3.720;2022-08-04T06:35:00;10.45;;;8.55;;
39492;SDS011;25176;51.060;3.720;2022-08-04T06:37:28;11.13;;;8.82;;
39492;SDS011;25176;51.060;3.720;2022-08-04T06:39:54;10.40;;;8.15;;
39492;SDS011;25176;51.060;3.720;2022-08-04T06:42:22;9.30;;;7.53;;
39492;SDS011;25176;51.060;3.720;2022-08-04T06:44:51;8.20;;;7.35;;
39492;SDS011;25176;51.060;3.720;2022-08-04T06:47:22;14.98;;;7.45;;
39492;SDS011;25176;51.060;3.720;2022-08-04T06:49:49;9.45;;;6.88;;
39492;SDS011;25176;51.060;3.720;2022-08-04T06:52:19;11.98;;;7.35;;
39492;SDS011;25176;51.060;3.720;2022-08-04T06:54:47;6.72;;;6.03;;
39492;SDS011;25176;51.060;3.720;2022-08-04T06:57:15;11.95;;;6.32;;
39492;SDS011;25176;51.060;3.720;2022-08-04T06:59:44;11.20;;;5.63;;
39492;SDS011;25176;51.060;3.720;2022-08-04T07:02:13;11.13;;;6.50;;
39492;SDS011;25176;51.060;3.720;2022-08-04T07:04:41;9.30;;;6.28;;
39492;SDS011;25176;51.060;3.720;2022-08-04T07:07:08;7.90;;;5.93;;
39492;SDS011;25176;51.060;3.720;2022-08-04T07:09:34;8.55;;;6.53;;
39492;SDS011;25176;51.060;3.720;2022-08-04T07:12:00;7.40;;;6.65;;
39492;SDS011;25176;51.060;3.720;2022-08-04T07:14:27;9.82;;;6.00;;
39492;SDS011;25176;51.060;3.720;2022-08-04T07:16:53;8.90;;;6.63;;
39492;SDS011;25176;51.060;3.720;2022-08-04T07:19:20;7.53;;;6.25;;
39492;SDS011;25176;51.060;3.720;2022-08-04T07:21:46;9.00;;;7.45;;
39492;SDS011;25176;51.060;3.720;2022-08-04T07:24:12;10.48;;;6.85;;
39492;SDS011;25176;51.060;3.720;2022-08-04T07:26:39;8.02;;;6.07;;
39492;SDS011;25176;51.060;3.720;2022-08-04T07:29:05;6.63;;;5.85;;
39492;SDS011;25176;51.060;3.720;2022-08-04T07:31:31;7.28;;;6.13;;
39492;SDS011;25176;51.060;3.720;2022-08-04T07:33:58;6.32;;;5.50;;
39492;SDS011;25176;51.060;3.720;2022-08-04T07:36:24;12.00;;;7.32;;
39492;SDS011;25176;51.060;3.720;2022-08-04T07:38:50;9.38;;;5.82;;
39492;SDS011;25176;51.060;3.720;2022-08-04T07:41:18;13.85;;;6.75;;
39492;SDS011;25176;51.060;3.720;2022-08-04T07:43:46;9.60;;;5.63;;
39492;SDS011;25176;51.060;3.720;2022-08-04T07:46:12;11.23;;;5.32;;
39492;SDS011;25176;51.060;3.720;2022-08-04T07:48:38;10.15;;;5.70;;
39492;SDS011;25176;51.060;3.720;2022-08-04T07:51:04;7.07;;;5.00;;
39492;SDS011;25176;51.060;3.720;2022-08-04T07:53:30;11.50;;;4.95;;
39492;SDS011;25176;51.060;3.720;2022-08-04T07:55:57;20.10;;;6.05;;
39492;SDS011;25176;51.060;3.720;2022-08-04T07:58:24;9.07;;;4.60;;
39492;SDS011;25176;51.060;3.720;2022-08-04T08:00:51;7.53;;;4.10;;
39492;SDS011;25176;51.060;3.720;2022-08-04T08:03:18;8.15;;;4.90;;
39492;SDS011;25176;51.060;3.720;2022-08-04T08:05:44;8.00;;;4.10;;
39492;SDS011;25176;51.060;3.720;2022-08-04T08:08:10;8.70;;;4.78;;
39492;SDS011;25176;51.060;3.720;2022-08-04T08:10:36;9.55;;;4.55;;
39492;SDS011;25176;51.060;3.720;2022-08-04T08:13:03;17.92;;;6.10;;
39492;SDS011;25176;51.060;3.720;2022-08-04T08:15:29;7.90;;;5.45;;
39492;SDS011;25176;51.060;3.720;2022-08-04T08:17:55;5.72;;;4.72;;
39492;SDS011;25176;51.060;3.720;2022-08-04T08:20:20;6.90;;;4.63;;
39492;SDS011;25176;51.060;3.720;2022-08-04T08:22:46;10.00;;;4.82;;
39492;SDS011;25176;51.060;3.720;2022-08-04T08:25:12;7.40;;;4.50;;
39492;SDS011;25176;51.060;3.720;2022-08-04T08:27:37;13.48;;;5.70;;
39492;SDS011;25176;51.060;3.720;2022-08-04T08:30:03;8.95;;;5.25;;
39492;SDS011;25176;51.060;3.720;2022-08-04T08:32:29;6.47;;;4.97;;
39492;SDS011;25176;51.060;3.720;2022-08-04T08:34:55;14.10;;;5.28;;
39492;SDS011;25176;51.060;3.720;2022-08-04T08:37:37;8.82;;;4.18;;
39492;SDS011;25176;51.060;3.720;2022-08-04T08:40:29;6.50;;;4.78;;
39492;SDS011;25176;51.060;3.720;2022-08-04T08:56:59;8.25;;;5.15;;
39492;SDS011;25176;51.060;3.720;2022-08-04T08:59:47;8.20;;;4.95;;
39492;SDS011;25176;51.060;3.720;2022-08-04T09:05:47;8.82;;;7.93;;
39492;SDS011;25176;51.060;3.720;2022-08-04T09:11:11;14.75;;;9.25;;
39492;SDS011;25176;51.060;3.720;2022-08-04T09:13:51;12.18;;;8.90;;
39492;SDS011;25176;51.060;3.720;2022-08-04T09:16:27;10.20;;;7.90;;
39492;SDS011;25176;51.060;3.720;2022-08-04T09:24:42;8.80;;;5.47;;
39492;SDS011;25176;51.060;3.720;2022-08-04T09:27:15;6.43;;;4.25;;
39492;SDS011;25176;51.060;3.720;2022-08-04T09:32:33;4.20;;;3.25;;
39492;SDS011;25176;51.060;3.720;2022-08-04T09:37:41;5.40;;;3.60;;
39492;SDS011;25176;51.060;3.720;2022-08-04T09:46:07;9.48;;;2.97;;
39492;SDS011;25176;51.060;3.720;2022-08-04T09:48:51;6.53;;;2.72;;
39492;SDS011;25176;51.060;3.720;2022-08-04T09:54:16;5.25;;;2.35;;
39492;SDS011;25176;51.060;3.720;2022-08-04T09:57:03;4.65;;;2.33;;
39492;SDS011;25176;51.060;3.720;2022-08-04T09:59:37;3.92;;;1.63;;
39492;SDS011;25176;51.060;3.720;2022-08-04T10:02:12;4.55;;;1.90;;
39492;SDS011;25176;51.060;3.720;2022-08-04T10:12:51;2.28;;;1.75;;
39492;SDS011;25176;51.060;3.720;2022-08-04T10:15:39;5.85;;;2.28;;
39492;SDS011;25176;51.060;3.720;2022-08-04T10:18:27;7.25;;;1.60;;
39492;SDS011;25176;51.060;3.720;2022-08-04T10:27:10;4.40;;;1.67;;
39492;SDS011;25176;51.060;3.720;2022-08-04T10:29:44;6.35;;;2.05;;
39492;SDS011;25176;51.060;3.720;2022-08-04T10:37:22;1.85;;;1.30;;
39492;SDS011;25176;51.060;3.720;2022-08-04T10:40:02;4.93;;;1.65;;
39492;SDS011;25176;51.060;3.720;2022-08-04T10:42:58;4.57;;;1.58;;
39492;SDS011;25176;51.060;3.720;2022-08-04T10:45:32;3.33;;;1.42;;
39492;SDS011;25176;51.060;3.720;2022-08-04T10:48:46;6.93;;;1.60;;
39492;SDS011;25176;51.060;3.720;2022-08-04T10:51:08;3.13;;;1.25;;
39492;SDS011;25176;51.060;3.720;2022-08-04T10:53:42;5.75;;;1.90;;
39492;SDS011;25176;51.060;3.720;2022-08-04T10:56:20;4.38;;;1.45;;
39492;SDS011;25176;51.060;3.720;2022-08-04T10:59:03;1.85;;;1.02;;
39492;SDS011;25176;51.060;3.720;2022-08-04T11:01:41;5.40;;;1.52;;
39492;SDS011;25176;51.060;3.720;2022-08-04T11:04:20;3.95;;;1.40;;
39492;SDS011;25176;51.060;3.720;2022-08-04T11:06:50;3.80;;;1.60;;
39492;SDS011;25176;51.060;3.720;2022-08-04T11:09:17;5.50;;;2.00;;
39492;SDS011;25176;51.060;3.720;2022-08-04T11:11:48;4.53;;;1.70;;
39492;SDS011;25176;51.060;3.720;2022-08-04T11:14:30;2.95;;;1.48;;
39492;SDS011;25176;51.060;3.720;2022-08-04T11:17:07;5.60;;;1.63;;
39492;SDS011;25176;51.060;3.720;2022-08-04T11:19:46;3.03;;;1.50;;
39492;SDS011;25176;51.060;3.720;2022-08-04T11:22:26;4.22;;;1.70;;
39492;SDS011;25176;51.060;3.720;2022-08-04T11:25:04;4.60;;;1.48;;
39492;SDS011;25176;51.060;3.720;2022-08-04T11:30:48;4.63;;;2.10;;
39492;SDS011;25176;51.060;3.720;2022-08-04T11:36:04;4.90;;;1.52;;
39492;SDS011;25176;51.060;3.720;2022-08-04T11:38:32;4.30;;;1.58;;
39492;SDS011;25176;51.060;3.720;2022-08-04T11:44:04;7.32;;;1.33;;
39492;SDS011;25176;51.060;3.720;2022-08-04T11:46:38;5.63;;;1.73;;
39492;SDS011;25176;51.060;3.720;2022-08-04T11:49:09;3.60;;;1.52;;
39492;SDS011;25176;51.060;3.720;2022-08-04T11:51:40;6.72;;;2.00;;
39492;SDS011;25176;51.060;3.720;2022-08-04T11:54:08;4.43;;;2.60;;
39492;SDS011;25176;51.060;3.720;2022-08-04T11:56:36;3.53;;;1.77;;
39492;SDS011;25176;51.060;3.720;2022-08-04T11:59:02;3.97;;;1.80;;
39492;SDS011;25176;51.060;3.720;2022-08-04T12:10:10;3.63;;;1.92;;
39492;SDS011;25176;51.060;3.720;2022-08-04T12:15:34;6.15;;;1.95;;
39492;SDS011;25176;51.060;3.720;2022-08-04T12:18:20;53.05;;;9.13;;
39492;SDS011;25176;51.060;3.720;2022-08-04T12:20:54;3.42;;;1.23;;
39492;SDS011;25176;51.060;3.720;2022-08-04T12:23:25;9.18;;;1.40;;
39492;SDS011;25176;51.060;3.720;2022-08-04T12:25:57;2.97;;;1.35;;
39492;SDS011;25176;51.060;3.720;2022-08-04T12:28:28;8.73;;;1.92;;
39492;SDS011;25176;51.060;3.720;2022-08-04T12:30:59;5.43;;;1.88;;
39492;SDS011;25176;51.060;3.720;2022-08-04T12:36:11;4.20;;;1.60;;
39492;SDS011;25176;51.060;3.720;2022-08-04T12:38:58;3.80;;;1.30;;
39492;SDS011;25176;51.060;3.720;2022-08-04T12:41:35;5.07;;;1.60;;
39492;SDS011;25176;51.060;3.720;2022-08-04T12:44:06;5.40;;;1.90;;
39492;SDS011;25176;51.060;3.720;2022-08-04T12:49:02;2.65;;;1.35;;
39492;SDS011;25176;51.060;3.720;2022-08-04T12:51:35;4.47;;;1.40;;
39492;SDS011;25176;51.060;3.720;2022-08-04T12:54:07;5.57;;;1.42;;
39492;SDS011;25176;51.060;3.720;2022-08-04T12:56:34;2.70;;;1.00;;
39492;SDS011;25176;51.060;3.720;2022-08-04T12:59:01;4.53;;;1.67;;
39492;SDS011;25176;51.060;3.720;2022-08-04T13:01:30;2.70;;;1.40;;
39492;SDS011;25176;51.060;3.720;2022-08-04T13:03:58;5.65;;;1.60;;
39492;SDS011;25176;51.060;3.720;2022-08-04T13:06:29;3.25;;;1.25;;
39492;SDS011;25176;51.060;3.720;2022-08-04T13:09:08;5.55;;;1.83;;
39492;SDS011;25176;51.060;3.720;2022-08-04T13:11:40;5.03;;;1.50;;
39492;SDS011;25176;51.060;3.720;2022-08-04T13:14:09;5.78;;;1.75;;
39492;SDS011;25176;51.060;3.720;2022-08-04T13:16:37;2.13;;;1.33;;
39492;SDS011;25176;51.060;3.720;2022-08-04T13:19:04;6.57;;;1.58;;
39492;SDS011;25176;51.060;3.720;2022-08-04T13:21:32;7.18;;;1.45;;
39492;SDS011;25176;51.060;3.720;2022-08-04T13:24:02;5.32;;;1.40;;
39492;SDS011;25176;51.060;3.720;2022-08-04T13:26:30;4.03;;;0.90;;
39492;SDS011;25176;51.060;3.720;2022-08-04T13:28:59;4.05;;;1.33;;
39492;SDS011;25176;51.060;3.720;2022-08-04T13:31:26;5.78;;;1.45;;
39492;SDS011;25176;51.060;3.720;2022-08-04T13:33:53;6.00;;;1.98;;
39492;SDS011;25176;51.060;3.720;2022-08-04T13:36:29;3.25;;;1.77;;
39492;SDS011;25176;51.060;3.720;2022-08-04T13:39:01;3.25;;;1.60;;
39492;SDS011;25176;51.060;3.720;2022-08-04T13:41:33;8.40;;;2.28;;
39492;SDS011;25176;51.060;3.720;2022-08-04T13:44:03;11.77;;;2.08;;
39492;SDS011;25176;51.060;3.720;2022-08-04T13:46:55;3.58;;;1.95;;
39492;SDS011;25176;51.060;3.720;2022-08-04T13:49:22;4.80;;;1.58;;
39492;SDS011;25176;51.060;3.720;2022-08-04T13:51:49;3.55;;;2.10;;
39492;SDS011;25176;51.060;3.720;2022-08-04T13:54:34;4.68;;;1.77;;
39492;SDS011;25176;51.060;3.720;2022-08-04T13:57:12;5.03;;;1.90;;
39492;SDS011;25176;51.060;3.720;2022-08-04T13:59:47;4.25;;;1.95;;
39492;SDS011;25176;51.060;3.720;2022-08-04T14:07:50;2.72;;;2.05;;
39492;SDS011;25176;51.060;3.720;2022-08-04T14:10:19;6.40;;;2.05;;
39492;SDS011;25176;51.060;3.720;2022-08-04T14:12:47;4.78;;;2.55;;
39492;SDS011;25176;51.060;3.720;2022-08-04T14:15:33;5.82;;;1.85;;
39492;SDS011;25176;51.060;3.720;2022-08-04T14:21:05;2.60;;;1.48;;
39492;SDS011;25176;51.060;3.720;2022-08-04T14:28:46;3.20;;;1.60;;
39492;SDS011;25176;51.060;3.720;2022-08-04T14:31:14;8.88;;;2.47;;
39492;SDS011;25176;51.060;3.720;2022-08-04T14:33:42;3.13;;;1.60;;
39492;SDS011;25176;51.060;3.720;2022-08-04T14:36:10;3.67;;;1.40;;
39492;SDS011;25176;51.060;3.720;2022-08-04T14:41:09;5.95;;;1.80;;
39492;SDS011;25176;51.060;3.720;2022-08-04T14:43:46;3.72;;;1.65;;
39492;SDS011;25176;51.060;3.720;2022-08-04T14:46:17;5.93;;;1.73;;
39492;SDS011;25176;51.060;3.720;2022-08-04T14:51:40;2.88;;;1.20;;
39492;SDS011;25176;51.060;3.720;2022-08-04T14:54:08;5.05;;;2.45;;
39492;SDS011;25176;51.060;3.720;2022-08-04T14:56:35;4.72;;;1.73;;
39492;SDS011;25176;51.060;3.720;2022-08-04T14:59:07;5.68;;;1.42;;
39492;SDS011;25176;51.060;3.720;2022-08-04T15:01:35;3.13;;;1.40;;
39492;SDS011;25176;51.060;3.720;2022-08-04T15:04:02;2.92;;;1.35;;
39492;SDS011;25176;51.060;3.720;2022-08-04T15:06:29;6.70;;;2.00;;
39492;SDS011;25176;51.060;3.720;2022-08-04T15:08:57;24.85;;;3.50;;
39492;SDS011;25176;51.060;3.720;2022-08-04T15:11:25;3.63;;;1.90;;
39492;SDS011;25176;51.060;3.720;2022-08-04T15:13:51;3.45;;;1.70;;
39492;SDS011;25176;51.060;3.720;2022-08-04T15:16:19;3.50;;;1.70;;
39492;SDS011;25176;51.060;3.720;2022-08-04T15:18:45;7.00;;;2.00;;
39492;SDS011;25176;51.060;3.720;2022-08-04T15:21:11;4.80;;;1.63;;
39492;SDS011;25176;51.060;3.720;2022-08-04T15:23:37;8.80;;;2.00;;
39492;SDS011;25176;51.060;3.720;2022-08-04T15:26:03;3.60;;;1.98;;
39492;SDS011;25176;51.060;3.720;2022-08-04T15:28:30;4.32;;;1.60;;
39492;SDS011;25176;51.060;3.720;2022-08-04T15:31:00;5.57;;;1.90;;
39492;SDS011;25176;51.060;3.720;2022-08-04T15:33:28;3.20;;;1.40;;
39492;SDS011;25176;51.060;3.720;2022-08-04T15:36:12;4.65;;;1.83;;
39492;SDS011;25176;51.060;3.720;2022-08-04T15:39:25;4.60;;;1.63;;
39492;SDS011;25176;51.060;3.720;2022-08-04T15:47:36;4.45;;;2.05;;
39492;SDS011;25176;51.060;3.720;2022-08-04T15:50:10;5.43;;;2.03;;
39492;SDS011;25176;51.060;3.720;2022-08-04T15:55:34;6.15;;;1.83;;
39492;SDS011;25176;51.060;3.720;2022-08-04T15:58:07;4.03;;;1.50;;
39492;SDS011;25176;51.060;3.720;2022-08-04T16:05:58;5.40;;;1.55;;
39492;SDS011;25176;51.060;3.720;2022-08-04T16:08:24;4.40;;;1.50;;
39492;SDS011;25176;51.060;3.720;2022-08-04T16:10:50;6.32;;;2.08;;
39492;SDS011;25176;51.060;3.720;2022-08-04T16:13:17;4.85;;;1.75;;
39492;SDS011;25176;51.060;3.720;2022-08-04T16:26:39;3.83;;;1.45;;
39492;SDS011;25176;51.060;3.720;2022-08-04T16:34:46;4.80;;;1.40;;
39492;SDS011;25176;51.060;3.720;2022-08-04T16:37:35;3.90;;;1.65;;
39492;SDS011;25176;51.060;3.720;2022-08-04T16:42:56;2.95;;;1.52;;
39492;SDS011;25176;51.060;3.720;2022-08-04T16:45:37;4.88;;;1.92;;
39492;SDS011;25176;51.060;3.720;2022-08-04T16:48:14;6.15;;;1.83;;
39492;SDS011;25176;51.060;3.720;2022-08-04T16:50:45;4.80;;;1.60;;
39492;SDS011;25176;51.060;3.720;2022-08-04T16:53:16;4.80;;;2.00;;
39492;SDS011;25176;51.060;3.720;2022-08-04T16:55:47;5.00;;;2.15;;
39492;SDS011;25176;51.060;3.720;2022-08-04T16:58:15;5.10;;;1.67;;
39492;SDS011;25176;51.060;3.720;2022-08-04T17:00:51;3.88;;;1.60;;
39492;SDS011;25176;51.060;3.720;2022-08-04T17:03:18;3.63;;;1.45;;
39492;SDS011;25176;51.060;3.720;2022-08-04T17:05:43;3.40;;;1.48;;
39492;SDS011;25176;51.060;3.720;2022-08-04T17:08:09;4.80;;;1.60;;
39492;SDS011;25176;51.060;3.720;2022-08-04T17:10:39;3.85;;;1.75;;
39492;SDS011;25176;51.060;3.720;2022-08-04T17:15:54;3.67;;;1.73;;
39492;SDS011;25176;51.060;3.720;2022-08-04T17:18:26;3.92;;;1.95;;
39492;SDS011;25176;51.060;3.720;2022-08-04T17:20:55;4.28;;;2.08;;
39492;SDS011;25176;51.060;3.720;2022-08-04T17:26:05;2.85;;;1.35;;
39492;SDS011;25176;51.060;3.720;2022-08-04T17:28:33;4.22;;;1.30;;
39492;SDS011;25176;51.060;3.720;2022-08-04T17:31:00;5.60;;;2.28;;
39492;SDS011;25176;51.060;3.720;2022-08-04T17:33:26;4.10;;;2.50;;
39492;SDS011;25176;51.060;3.720;2022-08-04T17:35:54;6.28;;;2.72;;
39492;SDS011;25176;51.060;3.720;2022-08-04T17:38:21;4.47;;;1.95;;
39492;SDS011;25176;51.060;3.720;2022-08-04T17:40:57;3.35;;;1.40;;
39492;SDS011;25176;51.060;3.720;2022-08-04T17:43:34;4.97;;;1.65;;
39492;SDS011;25176;51.060;3.720;2022-08-04T17:48:40;5.35;;;1.35;;
39492;SDS011;25176;51.060;3.720;2022-08-04T17:51:12;3.95;;;1.58;;
39492;SDS011;25176;51.060;3.720;2022-08-04T17:53:41;4.18;;;1.35;;
39492;SDS011;25176;51.060;3.720;2022-08-04T17:59:09;6.22;;;2.10;;
39492;SDS011;25176;51.060;3.720;2022-08-04T18:01:51;5.10;;;2.40;;
39492;SDS011;25176;51.060;3.720;2022-08-04T18:07:07;3.97;;;1.33;;
39492;SDS011;25176;51.060;3.720;2022-08-04T18:09:34;3.50;;;1.55;;
39492;SDS011;25176;51.060;3.720;2022-08-04T18:12:26;4.57;;;1.40;;
39492;SDS011;25176;51.060;3.720;2022-08-04T18:14:52;8.70;;;2.20;;
39492;SDS011;25176;51.060;3.720;2022-08-04T18:17:33;4.82;;;1.17;;
39492;SDS011;25176;51.060;3.720;2022-08-04T18:20:14;5.40;;;1.60;;
39492;SDS011;25176;51.060;3.720;2022-08-04T18:22:43;2.75;;;1.80;;
39492;SDS011;25176;51.060;3.720;2022-08-04T18:25:14;4.32;;;1.75;;
39492;SDS011;25176;51.060;3.720;2022-08-04T18:27:51;4.75;;;1.65;;
39492;SDS011;25176;51.060;3.720;2022-08-04T18:30:19;5.30;;;2.00;;
39492;SDS011;25176;51.060;3.720;2022-08-04T18:32:46;8.23;;;1.63;;
39492;SDS011;25176;51.060;3.720;2022-08-04T18:35:12;3.47;;;1.58;;
39492;SDS011;25176;51.060;3.720;2022-08-04T18:37:38;4.68;;;1.67;;
39492;SDS011;25176;51.060;3.720;2022-08-04T18:40:05;4.95;;;1.58;;
39492;SDS011;25176;51.060;3.720;2022-08-04T18:42:32;4.70;;;1.40;;
39492;SDS011;25176;51.060;3.720;2022-08-04T18:44:58;4.78;;;1.60;;
39492;SDS011;25176;51.060;3.720;2022-08-04T18:47:24;3.92;;;2.08;;
39492;SDS011;25176;51.060;3.720;2022-08-04T18:49:50;5.30;;;1.55;;
39492;SDS011;25176;51.060;3.720;2022-08-04T18:52:16;4.82;;;1.30;;
39492;SDS011;25176;51.060;3.720;2022-08-04T18:54:42;5.20;;;1.88;;
39492;SDS011;25176;51.060;3.720;2022-08-04T18:57:07;4.15;;;1.55;;
39492;SDS011;25176;51.060;3.720;2022-08-04T18:59:33;6.80;;;1.50;;
39492;SDS011;25176;51.060;3.720;2022-08-04T19:01:59;3.65;;;1.55;;
39492;SDS011;25176;51.060;3.720;2022-08-04T19:04:24;4.40;;;1.45;;
39492;SDS011;25176;51.060;3.720;2022-08-04T19:06:50;3.83;;;1.65;;
39492;SDS011;25176;51.060;3.720;2022-08-04T19:09:16;5.88;;;2.08;;
39492;SDS011;25176;51.060;3.720;2022-08-04T19:11:41;3.42;;;1.40;;
39492;SDS011;25176;51.060;3.720;2022-08-04T19:14:07;4.10;;;1.40;;
39492;SDS011;25176;51.060;3.720;2022-08-04T19:16:33;4.00;;;1.75;;
39492;SDS011;25176;51.060;3.720;2022-08-04T19:19:00;4.97;;;1.60;;
39492;SDS011;25176;51.060;3.720;2022-08-04T19:21:28;7.97;;;1.30;;
39492;SDS011;25176;51.060;3.720;2022-08-04T19:23:54;5.15;;;1.33;;
39492;SDS011;25176;51.060;3.720;2022-08-04T19:26:20;5.10;;;1.67;;
39492;SDS011;25176;51.060;3.720;2022-08-04T19:28:47;6.03;;;2.22;;
39492;SDS011;25176;51.060;3.720;2022-08-04T19:31:13;2.47;;;1.40;;
39492;SDS011;25176;51.060;3.720;2022-08-04T19:33:39;6.70;;;2.60;;
39492;SDS011;25176;51.060;3.720;2022-08-04T19:36:05;3.25;;;1.70;;
39492;SDS011;25176;51.060;3.720;2022-08-04T19:38:32;3.42;;;1.98;;
39492;SDS011;25176;51.060;3.720;2022-08-04T19:40:58;6.68;;;1.60;;
39492;SDS011;25176;51.060;3.720;2022-08-04T19:43:24;3.67;;;1.33;;
39492;SDS011;25176;51.060;3.720;2022-08-04T19:45:50;2.95;;;1.10;;
39492;SDS011;25176;51.060;3.720;2022-08-04T19:48:15;3.50;;;1.33;;
39492;SDS011;25176;51.060;3.720;2022-08-04T19:50:41;3.22;;;1.00;;
39492;SDS011;25176;51.060;3.720;2022-08-04T19:53:07;2.65;;;1.45;;
39492;SDS011;25176;51.060;3.720;2022-08-04T19:55:33;3.33;;;1.33;;
39492;SDS011;25176;51.060;3.720;2022-08-04T19:58:02;3.35;;;1.25;;
39492;SDS011;25176;51.060;3.720;2022-08-04T20:00:28;3.47;;;1.27;;
39492;SDS011;25176;51.060;3.720;2022-08-04T20:02:55;2.17;;;1.02;;